Time;durP1;ratioP1;P1;durP2;ratioP2;P2;SDS_P1;SDS_P2;PMS_P1;PMS_P2;Temp;Humidity;BMP_temperature;BMP_pressure;BME280_temperature;BME280_humidity;BME280_pressure;Samples;Min_cycle;Max_cycle;Signal;HPM_P1;HPM_P2
2023/07/27 00:02:23;;;;;;;6.55;3.67;;;14.10;99.90;;;;;;5022953;28;20058;-77
2023/07/27 00:04:48;;;;;;;5.35;3.35;;;14.10;99.90;;;;;;5021767;28;20041;-78
2023/07/27 00:07:14;;;;;;;8.13;3.15;;;14.00;99.90;;;;;;5022156;28;20838;-78
2023/07/27 00:09:40;;;;;;;6.07;3.90;;;14.10;99.90;;;;;;5015481;28;20053;-75
2023/07/27 00:12:06;;;;;;;5.32;3.15;;;14.00;99.90;;;;;;5007425;28;20488;-78
2023/07/27 00:14:31;;;;;;;8.23;3.55;;;14.00;99.90;;;;;;5018300;28;20067;-75
2023/07/27 00:16:57;;;;;;;6.15;3.65;;;14.00;99.90;;;;;;5013218;28;20058;-76
2023/07/27 00:19:22;;;;;;;7.20;3.33;;;14.00;99.90;;;;;;5004461;28;20046;-78
2023/07/27 00:21:48;;;;;;;5.82;3.53;;;14.00;99.90;;;;;;5006710;28;20456;-78
2023/07/27 00:24:14;;;;;;;7.43;3.50;;;14.00;99.90;;;;;;5007684;28;20536;-76
2023/07/27 00:26:41;;;;;;;7.20;3.00;;;14.00;99.90;;;;;;5021589;28;20069;-77
2023/07/27 00:29:07;;;;;;;7.05;4.15;;;14.00;99.90;;;;;;5007229;28;20765;-76
2023/07/27 00:31:33;;;;;;;9.77;3.80;;;14.00;99.90;;;;;;5017147;28;20041;-77
2023/07/27 00:33:58;;;;;;;6.50;3.58;;;14.00;99.90;;;;;;5024537;28;20143;-77
2023/07/27 00:36:24;;;;;;;5.55;3.47;;;14.00;99.90;;;;;;5025969;28;20719;-78
2023/07/27 00:38:49;;;;;;;5.57;3.42;;;14.00;99.90;;;;;;5024576;28;20142;-74
2023/07/27 00:41:15;;;;;;;6.13;3.00;;;14.00;99.90;;;;;;5026384;28;20060;-76
2023/07/27 00:43:40;;;;;;;7.20;3.13;;;14.10;99.90;;;;;;5015129;28;20128;-76
2023/07/27 00:46:07;;;;;;;6.35;3.17;;;14.00;99.90;;;;;;5005977;28;20551;-78
2023/07/27 00:48:33;;;;;;;7.95;3.08;;;14.00;99.90;;;;;;5004425;28;20045;-78
2023/07/27 00:50:59;;;;;;;5.57;3.33;;;14.00;99.90;;;;;;5006418;28;20050;-78
2023/07/27 00:53:25;;;;;;;6.78;3.55;;;14.00;99.90;;;;;;5006014;28;20052;-78
2023/07/27 00:55:51;;;;;;;6.35;3.47;;;14.00;99.90;;;;;;5006102;28;20037;-77
2023/07/27 00:58:16;;;;;;;7.60;3.60;;;14.00;99.90;;;;;;5006444;28;20041;-75
2023/07/27 01:00:42;;;;;;;8.10;3.22;;;14.00;99.90;;;;;;5006251;28;20045;-77
2023/07/27 01:03:08;;;;;;;6.65;3.40;;;14.00;99.90;;;;;;5004285;28;20064;-75
2023/07/27 01:05:35;;;;;;;6.13;2.95;;;14.00;99.90;;;;;;5006496;28;20050;-78
2023/07/27 01:10:47;;;;;;;5.43;3.13;;;14.00;99.90;;;;;;5021270;28;20057;-79
2023/07/27 01:13:22;;;;;;;7.47;2.60;;;13.90;99.90;;;;;;5006071;28;20860;-78
2023/07/27 01:15:55;;;;;;;5.28;3.25;;;14.00;99.90;;;;;;5014708;28;20084;-78
2023/07/27 01:18:29;;;;;;;5.25;2.78;;;13.90;99.90;;;;;;5005246;28;20038;-77
2023/07/27 01:21:19;;;;;;;5.18;3.15;;;13.90;99.90;;;;;;5004591;28;20136;-75
2023/07/27 01:24:17;;;;;;;7.57;3.58;;;13.90;99.90;;;;;;5005972;28;20038;-77
2023/07/27 01:26:54;;;;;;;5.53;3.08;;;13.90;99.90;;;;;;5004871;28;20427;-78
2023/07/27 01:29:52;;;;;;;5.45;2.60;;;13.90;99.90;;;;;;5018700;28;20384;-77
2023/07/27 01:32:20;;;;;;;9.27;3.03;;;13.80;99.90;;;;;;5024070;28;20054;-79
2023/07/27 01:34:49;;;;;;;4.50;2.22;;;13.90;99.90;;;;;;5021818;28;20404;-78
2023/07/27 01:37:17;;;;;;;6.45;2.75;;;13.80;99.90;;;;;;5005669;28;20422;-78
2023/07/27 01:39:48;;;;;;;8.65;3.22;;;13.80;99.90;;;;;;5015691;28;20041;-79
2023/07/27 01:42:15;;;;;;;6.37;3.30;;;13.80;99.90;;;;;;5023675;28;20058;-79
2023/07/27 01:44:41;;;;;;;7.63;3.55;;;13.80;99.90;;;;;;5024643;28;20037;-78
2023/07/27 01:47:08;;;;;;;5.32;3.33;;;13.80;99.90;;;;;;5019039;28;20053;-78
2023/07/27 01:49:36;;;;;;;4.53;2.72;;;13.80;99.90;;;;;;5004752;28;20137;-78
2023/07/27 01:52:04;;;;;;;7.97;2.55;;;13.90;99.90;;;;;;5019273;28;20053;-77
2023/07/27 01:54:30;;;;;;;5.60;2.88;;;13.90;99.90;;;;;;5025200;28;20060;-76
2023/07/27 01:56:57;;;;;;;4.45;2.90;;;13.90;99.90;;;;;;5023563;28;20068;-78
2023/07/27 01:59:24;;;;;;;5.00;3.30;;;13.90;99.90;;;;;;5024938;28;20084;-78
2023/07/27 02:01:51;;;;;;;6.82;3.25;;;13.90;99.90;;;;;;5024974;28;20038;-79
2023/07/27 02:04:16;;;;;;;5.30;2.92;;;13.90;99.90;;;;;;5023126;28;20111;-78
2023/07/27 02:06:43;;;;;;;7.82;3.00;;;13.90;99.90;;;;;;5022545;28;20069;-78
2023/07/27 02:09:08;;;;;;;6.13;3.33;;;13.90;99.90;;;;;;5003435;28;20061;-78
2023/07/27 02:11:34;;;;;;;8.05;3.53;;;13.90;99.90;;;;;;5012918;28;20057;-76
2023/07/27 02:13:59;;;;;;;5.55;2.65;;;13.90;99.90;;;;;;5007025;28;20400;-76
2023/07/27 02:16:45;;;;;;;6.65;2.97;;;14.00;99.90;;;;;;5012586;28;20049;-78
2023/07/27 02:19:15;;;;;;;6.45;3.10;;;13.90;99.90;;;;;;5023234;28;20121;-79
2023/07/27 02:21:42;;;;;;;6.22;3.05;;;13.90;99.90;;;;;;5023461;28;20068;-76
2023/07/27 02:24:08;;;;;;;6.13;3.35;;;13.90;99.90;;;;;;5023167;28;20041;-76
2023/07/27 02:26:34;;;;;;;7.18;3.35;;;14.00;99.90;;;;;;5024289;28;20068;-78
2023/07/27 02:29:00;;;;;;;7.93;3.78;;;14.00;99.90;;;;;;5023494;28;20055;-77
2023/07/27 02:31:25;;;;;;;5.60;2.30;;;14.00;99.90;;;;;;5024552;28;20725;-75
2023/07/27 02:33:51;;;;;;;4.20;2.60;;;14.00;99.90;;;;;;5023554;28;20783;-77
2023/07/27 02:36:16;;;;;;;9.88;2.97;;;14.00;99.90;;;;;;5024135;28;20125;-78
2023/07/27 02:38:42;;;;;;;7.85;2.80;;;14.00;99.90;;;;;;5024340;28;20491;-77
2023/07/27 02:41:10;;;;;;;6.10;3.05;;;14.00;99.90;;;;;;5023753;28;20126;-79
2023/07/27 02:43:36;;;;;;;4.32;3.10;;;14.00;99.90;;;;;;5023339;28;20053;-78
2023/07/27 02:46:01;;;;;;;5.78;3.55;;;14.00;99.90;;;;;;5024521;28;20447;-78
2023/07/27 02:48:27;;;;;;;8.55;3.38;;;14.00;99.90;;;;;;5023114;28;20847;-76
2023/07/27 02:50:53;;;;;;;8.43;3.75;;;14.00;99.90;;;;;;5024031;28;20049;-79
2023/07/27 02:53:18;;;;;;;5.60;2.55;;;14.00;99.90;;;;;;5023705;28;20044;-79
2023/07/27 02:56:01;;;;;;;6.72;3.35;;;14.00;99.90;;;;;;5023690;28;20107;-78
2023/07/27 02:58:27;;;;;;;7.47;3.80;;;14.10;99.90;;;;;;5023877;28;20176;-78
2023/07/27 03:00:58;;;;;;;6.40;2.83;;;14.10;99.90;;;;;;5010603;28;20050;-76
2023/07/27 03:03:24;;;;;;;5.67;3.53;;;14.10;99.90;;;;;;5003124;28;20439;-77
2023/07/27 03:06:02;;;;;;;6.15;3.13;;;14.10;99.90;;;;;;5004387;28;20085;-77
2023/07/27 03:08:29;;;;;;;7.60;3.50;;;14.20;99.90;;;;;;5020103;28;20053;-79
2023/07/27 03:11:00;;;;;;;4.90;2.83;;;14.20;99.90;;;;;;5023218;28;20518;-79
2023/07/27 03:13:25;;;;;;;5.93;2.72;;;14.20;99.90;;;;;;5023200;28;20087;-78
2023/07/27 03:15:51;;;;;;;6.07;3.38;;;14.20;99.90;;;;;;5020922;28;20117;-75
2023/07/27 03:18:17;;;;;;;7.43;3.30;;;14.20;99.90;;;;;;5011036;28;20072;-75
2023/07/27 03:20:43;;;;;;;8.90;4.32;;;14.20;99.90;;;;;;5023394;28;20111;-78
2023/07/27 03:23:10;;;;;;;5.47;3.28;;;14.20;99.90;;;;;;5023254;28;20076;-76
2023/07/27 03:25:37;;;;;;;7.15;3.25;;;14.20;99.90;;;;;;5024126;28;20041;-78
2023/07/27 03:28:05;;;;;;;10.40;4.00;;;14.20;99.90;;;;;;5023398;28;20037;-78
2023/07/27 03:30:31;;;;;;;6.57;3.22;;;14.20;99.90;;;;;;5015603;28;20045;-77
2023/07/27 03:32:56;;;;;;;7.60;3.20;;;14.20;99.90;;;;;;5001449;28;20046;-76
2023/07/27 03:35:22;;;;;;;6.40;3.38;;;14.20;99.90;;;;;;5016098;28;20487;-76
2023/07/27 03:37:50;;;;;;;11.48;4.40;;;14.20;99.90;;;;;;5023790;28;20037;-78
2023/07/27 03:40:15;;;;;;;8.70;3.58;;;14.30;99.90;;;;;;5023441;28;20052;-78
2023/07/27 03:42:41;;;;;;;7.32;4.13;;;14.30;99.90;;;;;;5022121;28;20411;-78
2023/07/27 03:45:07;;;;;;;6.47;3.40;;;14.30;99.90;;;;;;5024589;28;20121;-75
2023/07/27 03:47:33;;;;;;;8.00;4.30;;;14.30;99.90;;;;;;5025514;28;20103;-75
2023/07/27 03:49:58;;;;;;;7.90;3.83;;;14.30;99.90;;;;;;5018173;28;20700;-78
2023/07/27 03:52:24;;;;;;;7.72;3.80;;;14.30;99.90;;;;;;5008206;28;20080;-78
2023/07/27 03:54:50;;;;;;;6.85;3.83;;;14.30;99.90;;;;;;5008109;28;20530;-78
2023/07/27 03:57:15;;;;;;;7.65;4.00;;;14.30;99.90;;;;;;5005760;28;20050;-78
2023/07/27 03:59:41;;;;;;;8.43;3.92;;;14.30;99.90;;;;;;5006501;28;20104;-78
2023/07/27 04:02:06;;;;;;;8.35;4.15;;;14.30;99.90;;;;;;5016881;28;20131;-77
2023/07/27 04:04:32;;;;;;;7.68;4.05;;;14.30;99.90;;;;;;5026970;28;20048;-76
2023/07/27 04:06:58;;;;;;;9.77;4.32;;;14.40;99.90;;;;;;5025978;28;20052;-77
2023/07/27 04:09:23;;;;;;;7.85;3.78;;;14.30;99.90;;;;;;5027012;28;20061;-78
2023/07/27 04:11:49;;;;;;;9.00;4.40;;;14.30;99.90;;;;;;5025850;28;20053;-78
2023/07/27 04:14:15;;;;;;;9.70;4.32;;;14.40;99.90;;;;;;5025590;28;20384;-78
2023/07/27 04:16:41;;;;;;;8.85;5.05;;;14.40;99.90;;;;;;5017589;28;20586;-76
2023/07/27 04:19:06;;;;;;;12.85;4.47;;;14.30;99.90;;;;;;5006908;28;20061;-76
2023/07/27 04:21:32;;;;;;;9.50;4.63;;;14.40;99.90;;;;;;5006961;28;20041;-78
2023/07/27 04:23:58;;;;;;;9.05;4.32;;;14.30;99.90;;;;;;5007654;28;20061;-78
2023/07/27 04:26:23;;;;;;;9.55;5.00;;;14.40;99.90;;;;;;5006916;28;20045;-76
2023/07/27 04:28:49;;;;;;;9.10;4.65;;;14.40;99.90;;;;;;5007065;28;20117;-77
2023/07/27 04:31:14;;;;;;;7.20;3.83;;;14.40;99.90;;;;;;5007087;28;20132;-77
2023/07/27 04:33:40;;;;;;;10.07;4.53;;;14.40;99.90;;;;;;5006478;28;20125;-75
2023/07/27 04:36:06;;;;;;;11.48;4.60;;;14.40;99.90;;;;;;5006020;28;20073;-78
2023/07/27 04:38:31;;;;;;;11.40;4.60;;;14.40;99.90;;;;;;5014121;28;20049;-78
2023/07/27 04:40:57;;;;;;;7.72;4.63;;;14.40;99.90;;;;;;5025255;28;20136;-77
2023/07/27 04:43:23;;;;;;;9.65;4.45;;;14.40;99.90;;;;;;5026595;28;20053;-76
2023/07/27 04:45:49;;;;;;;8.68;4.55;;;14.40;99.90;;;;;;5026228;28;20042;-76
2023/07/27 04:48:14;;;;;;;9.05;5.07;;;14.40;99.90;;;;;;5025242;28;20049;-78
2023/07/27 04:50:40;;;;;;;11.13;4.57;;;14.40;99.90;;;;;;5026279;28;20179;-79
2023/07/27 04:53:05;;;;;;;12.05;6.20;;;14.30;99.90;;;;;;5024222;28;20068;-78
2023/07/27 04:55:31;;;;;;;12.18;5.10;;;14.40;99.90;;;;;;5024469;28;20103;-77
2023/07/27 04:57:57;;;;;;;11.35;4.57;;;14.30;99.90;;;;;;5024778;28;20037;-76
2023/07/27 05:00:22;;;;;;;9.65;4.75;;;14.40;99.90;;;;;;5026235;28;20045;-77
2023/07/27 05:02:48;;;;;;;11.77;4.30;;;14.40;99.90;;;;;;5023341;28;20045;-79
2023/07/27 05:05:13;;;;;;;9.27;4.63;;;14.40;99.90;;;;;;5025719;28;20086;-78
2023/07/27 05:07:39;;;;;;;9.77;4.95;;;14.40;99.90;;;;;;5026153;28;20038;-78
2023/07/27 05:10:05;;;;;;;9.93;4.65;;;14.40;99.90;;;;;;5022339;28;20108;-79
2023/07/27 05:12:32;;;;;;;8.90;4.68;;;14.40;99.90;;;;;;5006181;28;20042;-77
2023/07/27 05:14:58;;;;;;;12.00;6.70;;;14.40;99.90;;;;;;5015085;28;20049;-75
2023/07/27 05:17:24;;;;;;;10.02;5.60;;;14.40;99.90;;;;;;5009048;28;20080;-79
2023/07/27 05:19:50;;;;;;;9.73;5.35;;;14.40;99.90;;;;;;5006030;28;20077;-78
2023/07/27 05:22:15;;;;;;;13.30;5.47;;;14.40;99.90;;;;;;5005389;28;20049;-77
2023/07/27 05:24:41;;;;;;;15.20;5.43;;;14.40;99.90;;;;;;5006121;28;20048;-76
2023/07/27 05:27:06;;;;;;;8.63;4.50;;;14.40;99.90;;;;;;5013909;28;20057;-76
2023/07/27 05:29:32;;;;;;;9.73;4.68;;;14.50;99.90;;;;;;5025940;28;20408;-79
2023/07/27 05:31:58;;;;;;;11.02;5.85;;;14.50;99.90;;;;;;5024781;28;20041;-79
2023/07/27 05:34:23;;;;;;;7.38;4.93;;;14.50;99.90;;;;;;5025400;28;20064;-79
2023/07/27 05:36:49;;;;;;;12.32;5.13;;;14.50;99.90;;;;;;5025596;28;20416;-76
2023/07/27 05:39:14;;;;;;;13.48;4.97;;;14.50;99.90;;;;;;5023990;28;20052;-78
2023/07/27 05:41:40;;;;;;;11.32;5.90;;;14.50;99.90;;;;;;5025597;28;20403;-77
2023/07/27 05:44:06;;;;;;;10.20;4.38;;;14.50;99.90;;;;;;5025726;28;20045;-79
2023/07/27 05:46:31;;;;;;;10.48;4.97;;;14.50;99.90;;;;;;5025203;28;20057;-79
2023/07/27 05:48:57;;;;;;;9.32;4.75;;;14.50;99.90;;;;;;5024592;28;20594;-77
2023/07/27 05:51:23;;;;;;;9.30;4.88;;;14.50;99.90;;;;;;5025192;28;20045;-76
2023/07/27 05:53:48;;;;;;;10.25;4.75;;;14.50;99.90;;;;;;5025302;28;20053;-78
2023/07/27 05:56:14;;;;;;;10.02;5.35;;;14.50;99.90;;;;;;5024727;28;20443;-77
2023/07/27 05:58:39;;;;;;;11.40;4.80;;;14.50;99.90;;;;;;5025100;28;20068;-78
2023/07/27 06:01:05;;;;;;;10.88;5.45;;;14.50;99.90;;;;;;5025597;28;20041;-78
2023/07/27 06:03:31;;;;;;;8.77;4.13;;;14.50;99.90;;;;;;5016476;28;20045;-75
2023/07/27 06:05:57;;;;;;;9.60;4.15;;;14.50;99.90;;;;;;5005471;28;20046;-77
2023/07/27 06:08:23;;;;;;;9.02;4.35;;;14.50;99.90;;;;;;5004633;28;20132;-78
2023/07/27 06:10:49;;;;;;;6.43;3.83;;;14.60;99.90;;;;;;5013113;28;20116;-78
2023/07/27 06:13:15;;;;;;;8.57;4.18;;;14.60;99.90;;;;;;5022810;28;20042;-79
2023/07/27 06:15:49;;;;;;;5.68;3.35;;;14.60;99.90;;;;;;5024751;28;20580;-78
2023/07/27 06:18:15;;;;;;;6.47;4.45;;;14.50;99.90;;;;;;5022052;28;20048;-78
2023/07/27 06:20:41;;;;;;;6.28;3.60;;;14.50;99.90;;;;;;5010234;28;20034;-77
2023/07/27 06:23:07;;;;;;;7.10;3.90;;;14.50;99.90;;;;;;5012085;28;20443;-78
2023/07/27 06:25:32;;;;;;;9.95;5.35;;;14.60;99.90;;;;;;5000725;28;20084;-79
2023/07/27 06:27:58;;;;;;;5.53;4.20;;;14.60;99.90;;;;;;5024181;28;20041;-75
2023/07/27 06:30:23;;;;;;;8.18;4.35;;;14.60;99.90;;;;;;5006043;28;20163;-78
2023/07/27 06:32:49;;;;;;;9.25;4.00;;;14.70;99.90;;;;;;5016126;28;20503;-78
2023/07/27 06:35:15;;;;;;;6.55;3.58;;;14.60;99.90;;;;;;5003899;28;20046;-80
2023/07/27 06:37:42;;;;;;;8.23;3.97;;;14.70;99.90;;;;;;5018948;28;20696;-77
2023/07/27 06:40:08;;;;;;;4.22;3.25;;;14.70;99.90;;;;;;5024291;28;20120;-79
2023/07/27 06:42:33;;;;;;;6.65;2.97;;;14.70;99.90;;;;;;5024728;28;20128;-78
2023/07/27 06:44:59;;;;;;;8.00;3.92;;;14.80;99.90;;;;;;5024025;28;20037;-78
2023/07/27 06:47:25;;;;;;;5.55;3.50;;;14.80;99.90;;;;;;5021518;28;20502;-79
2023/07/27 06:49:51;;;;;;;8.27;3.83;;;14.90;99.90;;;;;;5009968;28;20046;-79
2023/07/27 06:52:16;;;;;;;6.93;3.92;;;14.90;99.90;;;;;;5003815;28;20703;-77
2023/07/27 06:54:42;;;;;;;5.63;2.92;;;14.90;99.90;;;;;;5003012;28;20065;-77
2023/07/27 06:57:10;;;;;;;5.25;3.42;;;14.90;99.90;;;;;;5004694;28;20049;-75
2023/07/27 06:59:36;;;;;;;5.18;3.15;;;14.90;99.90;;;;;;5004234;28;20038;-80
2023/07/27 07:02:02;;;;;;;5.75;2.53;;;15.00;99.90;;;;;;5003375;28;20049;-79
2023/07/27 07:04:30;;;;;;;5.85;3.40;;;15.00;99.90;;;;;;5014806;28;20043;-78
2023/07/27 07:06:55;;;;;;;5.57;3.30;;;15.00;99.90;;;;;;5008647;28;20394;-79
2023/07/27 07:09:21;;;;;;;6.00;3.40;;;15.10;99.90;;;;;;5005096;28;20077;-77
2023/07/27 07:11:48;;;;;;;6.43;3.10;;;15.10;99.90;;;;;;5023564;28;20080;-77
2023/07/27 07:14:14;;;;;;;5.82;2.92;;;15.10;99.90;;;;;;5022516;28;20044;-75
2023/07/27 07:16:39;;;;;;;10.40;3.63;;;15.10;99.90;;;;;;5012136;28;20050;-78
2023/07/27 07:19:05;;;;;;;6.57;3.83;;;15.20;99.90;;;;;;5003944;28;20048;-78
2023/07/27 07:21:31;;;;;;;6.45;3.65;;;15.20;99.90;;;;;;5003156;28;20048;-74
2023/07/27 07:23:56;;;;;;;8.07;3.90;;;15.30;99.90;;;;;;5023561;28;20075;-78
2023/07/27 07:26:22;;;;;;;12.10;3.50;;;15.30;99.90;;;;;;5023328;28;20123;-77
2023/07/27 07:28:48;;;;;;;6.60;3.30;;;15.30;99.90;;;;;;5022269;28;20439;-76
2023/07/27 07:31:14;;;;;;;8.10;3.90;;;15.30;99.90;;;;;;5005104;28;20057;-78
2023/07/27 07:33:39;;;;;;;7.65;3.53;;;15.30;99.90;;;;;;5017934;28;20474;-78
2023/07/27 07:36:05;;;;;;;6.85;3.08;;;15.30;99.90;;;;;;5023848;28;20041;-77
2023/07/27 07:38:31;;;;;;;5.95;3.13;;;15.40;99.90;;;;;;5021714;28;20939;-76
2023/07/27 07:40:56;;;;;;;5.78;3.38;;;15.30;99.90;;;;;;5017186;28;20541;-75
2023/07/27 07:43:22;;;;;;;7.05;3.13;;;15.30;99.90;;;;;;5013488;28;20045;-77
2023/07/27 07:45:47;;;;;;;4.60;2.90;;;15.40;99.90;;;;;;5019715;28;20044;-78
2023/07/27 07:48:13;;;;;;;6.57;3.60;;;15.40;99.90;;;;;;5001096;28;20053;-77
2023/07/27 07:50:39;;;;;;;6.38;3.75;;;15.40;99.90;;;;;;5009398;28;20046;-76
2023/07/27 07:53:05;;;;;;;5.05;3.08;;;15.40;99.90;;;;;;5017075;28;20123;-77
2023/07/27 07:55:36;;;;;;;6.50;3.70;;;15.40;99.90;;;;;;5019534;28;20050;-77
2023/07/27 07:58:01;;;;;;;3.58;2.33;;;15.40;99.90;;;;;;5010380;28;20053;-77
2023/07/27 08:00:27;;;;;;;6.68;3.13;;;15.40;99.90;;;;;;5022095;28;20744;-77
2023/07/27 08:02:52;;;;;;;7.50;3.05;;;15.40;99.90;;;;;;5022697;28;20057;-78
2023/07/27 08:05:18;;;;;;;4.03;3.30;;;15.40;99.90;;;;;;5022787;28;20049;-74
2023/07/27 08:07:44;;;;;;;4.78;2.63;;;15.50;99.90;;;;;;5012935;28;20099;-77
2023/07/27 08:10:10;;;;;;;4.88;2.10;;;15.50;99.90;;;;;;5016878;28;20530;-77
2023/07/27 08:12:36;;;;;;;3.50;2.25;;;15.50;99.90;;;;;;5022578;28;20045;-76
2023/07/27 08:15:02;;;;;;;3.40;2.63;;;15.50;99.90;;;;;;5001796;28;20057;-75
2023/07/27 08:17:31;;;;;;;4.35;2.40;;;15.50;99.90;;;;;;5017661;28;20412;-76
2023/07/27 08:19:57;;;;;;;4.00;2.40;;;15.50;99.90;;;;;;5022704;28;20071;-76
2023/07/27 08:22:23;;;;;;;4.03;1.73;;;15.50;99.90;;;;;;5022185;28;20037;-76
2023/07/27 08:24:50;;;;;;;3.03;1.83;;;15.50;99.90;;;;;;5021893;28;20049;-76
2023/07/27 08:27:16;;;;;;;4.95;2.63;;;15.50;99.90;;;;;;5002970;28;20038;-76
2023/07/27 08:29:41;;;;;;;4.72;2.40;;;15.50;99.90;;;;;;5009593;28;20034;-76
2023/07/27 08:32:07;;;;;;;1.90;1.67;;;15.50;99.90;;;;;;5011647;28;20053;-76
2023/07/27 08:34:33;;;;;;;3.15;1.92;;;15.50;99.90;;;;;;5022575;28;20056;-76
2023/07/27 08:36:59;;;;;;;2.88;1.77;;;15.50;99.90;;;;;;5008323;28;20037;-76
2023/07/27 08:39:24;;;;;;;4.22;2.25;;;15.50;99.90;;;;;;5024509;28;20030;-76
2023/07/27 08:41:50;;;;;;;3.72;1.65;;;15.50;99.90;;;;;;5006662;28;20111;-77
2023/07/27 08:44:16;;;;;;;2.63;2.10;;;15.50;99.90;;;;;;5009858;28;20037;-75
2023/07/27 08:46:42;;;;;;;3.78;1.90;;;15.50;99.90;;;;;;5024061;28;20053;-77
2023/07/27 08:49:12;;;;;;;3.90;1.95;;;15.50;99.90;;;;;;5024279;28;20124;-77
2023/07/27 08:51:41;;;;;;;2.97;1.90;;;15.50;99.90;;;;;;5025190;28;20088;-77
2023/07/27 08:54:06;;;;;;;4.03;2.03;;;15.50;99.90;;;;;;5025203;28;20041;-76
2023/07/27 08:56:32;;;;;;;3.47;2.38;;;15.50;99.90;;;;;;5024176;28;20057;-76
2023/07/27 08:58:58;;;;;;;4.63;2.58;;;15.50;99.90;;;;;;5024884;28;20045;-76
2023/07/27 09:01:23;;;;;;;4.97;2.53;;;15.60;99.90;;;;;;5024918;28;20597;-76
2023/07/27 09:03:49;;;;;;;4.03;2.15;;;15.60;99.90;;;;;;5022882;28;20034;-76
2023/07/27 09:06:15;;;;;;;1.98;1.75;;;15.60;99.90;;;;;;5016258;28;20077;-77
2023/07/27 09:08:42;;;;;;;3.13;1.90;;;15.60;99.90;;;;;;5018696;28;20038;-78
2023/07/27 09:11:10;;;;;;;3.42;2.03;;;15.60;99.90;;;;;;5012834;28;20141;-76
2023/07/27 09:13:35;;;;;;;4.55;2.50;;;15.60;99.90;;;;;;5010842;28;20045;-76
2023/07/27 09:16:03;;;;;;;4.38;2.45;;;15.60;99.90;;;;;;5019853;28;20092;-78
2023/07/27 09:18:34;;;;;;;4.38;2.20;;;15.60;99.90;;;;;;5021099;28;20042;-76
2023/07/27 09:21:08;;;;;;;3.88;2.60;;;15.60;99.90;;;;;;5003924;28;20053;-79
2023/07/27 09:23:35;;;;;;;3.58;2.08;;;15.70;99.90;;;;;;5013902;28;20078;-78
2023/07/27 09:26:00;;;;;;;4.38;2.28;;;15.70;99.90;;;;;;5019886;28;20087;-77
2023/07/27 09:28:28;;;;;;;4.78;2.25;;;15.70;99.90;;;;;;5035866;28;20042;-76
2023/07/27 09:31:03;;;;;;;5.85;2.80;;;15.80;99.90;;;;;;5023368;28;20484;-76
2023/07/27 09:33:29;;;;;;;5.50;2.88;;;15.80;99.90;;;;;;5021566;28;20034;-77
2023/07/27 09:35:58;;;;;;;3.60;2.50;;;15.90;99.90;;;;;;5012286;28;20043;-77
2023/07/27 09:38:27;;;;;;;3.17;2.15;;;15.90;99.90;;;;;;5021720;28;20439;-75
2023/07/27 09:40:53;;;;;;;4.68;2.35;;;15.90;99.90;;;;;;5021909;28;20053;-76
2023/07/27 09:43:24;;;;;;;5.03;2.53;;;15.90;99.90;;;;;;5021401;28;20044;-76
2023/07/27 09:45:58;;;;;;;4.03;2.90;;;15.90;99.90;;;;;;5017772;28;20049;-76
2023/07/27 09:48:25;;;;;;;3.10;2.38;;;16.00;99.90;;;;;;5020019;28;20292;-74
2023/07/27 09:50:53;;;;;;;4.75;3.05;;;16.00;99.90;;;;;;5019578;28;20341;-75
2023/07/27 09:53:21;;;;;;;4.15;2.78;;;15.90;99.90;;;;;;5013406;28;20431;-75
2023/07/27 09:55:49;;;;;;;4.15;2.88;;;16.00;99.90;;;;;;5016339;28;20427;-75
2023/07/27 09:58:16;;;;;;;3.80;2.55;;;16.00;99.90;;;;;;5009397;28;20038;-76
2023/07/27 10:00:41;;;;;;;4.60;2.60;;;16.00;99.90;;;;;;5021345;28;20033;-75
2023/07/27 10:03:07;;;;;;;5.65;3.28;;;16.10;99.90;;;;;;5023671;28;20034;-75
2023/07/27 10:05:37;;;;;;;4.80;2.95;;;16.10;99.90;;;;;;5015353;28;20049;-75
2023/07/27 10:08:04;;;;;;;4.43;2.72;;;16.20;99.90;;;;;;5009494;28;20115;-75
2023/07/27 10:10:32;;;;;;;4.65;3.35;;;16.20;99.90;;;;;;5020324;28;20084;-77
2023/07/27 10:13:04;;;;;;;5.10;2.90;;;16.30;99.90;;;;;;5018409;28;20503;-75
2023/07/27 10:15:29;;;;;;;4.97;3.13;;;16.30;99.90;;;;;;5022297;28;20077;-76
2023/07/27 10:17:59;;;;;;;4.75;3.00;;;16.40;99.90;;;;;;5012971;28;20092;-76
2023/07/27 10:20:28;;;;;;;5.70;3.72;;;16.40;99.90;;;;;;5016495;28;20037;-75
2023/07/27 10:23:13;;;;;;;5.85;3.80;;;16.40;99.90;;;;;;5015428;28;20041;-74
2023/07/27 10:26:08;;;;;;;5.63;3.35;;;16.50;99.90;;;;;;5013274;28;21339;-77
2023/07/27 10:28:48;;;;;;;4.95;3.10;;;16.50;99.90;;;;;;4997748;28;20439;-77
2023/07/27 10:31:20;;;;;;;5.32;3.30;;;16.60;99.90;;;;;;5015771;28;20634;-77
2023/07/27 10:34:16;;;;;;;7.07;4.28;;;16.50;99.90;;;;;;5005581;28;20052;-74
2023/07/27 10:36:50;;;;;;;5.97;3.60;;;16.60;99.90;;;;;;5015420;28;20037;-74
2023/07/27 10:39:18;;;;;;;5.72;3.35;;;16.60;99.90;;;;;;5016497;28;20049;-74
2023/07/27 10:42:02;;;;;;;5.82;3.47;;;16.60;99.90;;;;;;5021801;28;20140;-74
2023/07/27 10:44:49;;;;;;;8.20;3.53;;;16.60;99.90;;;;;;5009345;28;20068;-74
2023/07/27 10:47:22;;;;;;;6.50;4.18;;;16.70;99.90;;;;;;5015839;28;20061;-75
2023/07/27 10:49:56;;;;;;;7.47;4.13;;;16.70;99.90;;;;;;5022994;28;20037;-74
2023/07/27 10:52:27;;;;;;;8.02;4.13;;;16.70;99.90;;;;;;5020632;28;20045;-74
2023/07/27 10:54:55;;;;;;;6.40;4.07;;;16.80;99.90;;;;;;5021339;28;20116;-74
2023/07/27 10:57:22;;;;;;;7.18;3.97;;;16.80;99.90;;;;;;5002500;28;20535;-74
2023/07/27 10:59:51;;;;;;;7.47;4.60;;;16.80;99.90;;;;;;5000902;28;20042;-74
2023/07/27 11:02:29;;;;;;;6.75;4.55;;;16.80;99.90;;;;;;5003278;28;20239;-75
2023/07/27 11:04:59;;;;;;;7.07;4.28;;;16.90;99.90;;;;;;5021393;28;20088;-74
2023/07/27 11:07:42;;;;;;;9.45;4.25;;;16.90;99.90;;;;;;5021135;28;20060;-74
2023/07/27 11:10:20;;;;;;;7.70;4.03;;;17.00;99.90;;;;;;5011406;28;20125;-75
2023/07/27 11:12:54;;;;;;;8.50;4.43;;;17.10;99.90;;;;;;5014798;28;20060;-76
2023/07/27 11:15:26;;;;;;;9.10;4.35;;;17.10;99.90;;;;;;5020182;28;20133;-74
2023/07/27 11:17:56;;;;;;;;;;;17.20;99.90;;;;;;5018216;28;20050;-71
2023/07/27 11:20:23;;;;;;;7.38;3.95;;;17.20;99.90;;;;;;5011174;28;19917;-76
2023/07/27 11:22:50;;;;;;;6.88;3.83;;;17.20;99.90;;;;;;5017752;28;20116;-74
2023/07/27 11:25:16;;;;;;;5.28;3.55;;;17.30;99.90;;;;;;5020815;28;20052;-74
2023/07/27 11:27:42;;;;;;;6.72;3.45;;;17.30;99.90;;;;;;5014720;28;20038;-73
2023/07/27 11:30:16;;;;;;;7.45;3.30;;;17.40;99.90;;;;;;5009253;28;20061;-81
2023/07/27 11:32:42;;;;;;;5.18;3.10;;;17.40;99.90;;;;;;5009322;28;20045;-81
2023/07/27 11:35:08;;;;;;;6.05;3.33;;;17.40;99.90;;;;;;5018719;28;20057;-81
2023/07/27 11:37:34;;;;;;;5.65;3.03;;;17.50;99.90;;;;;;5017949;28;20099;-78
2023/07/27 11:40:00;;;;;;;5.00;3.17;;;17.50;99.90;;;;;;5017176;28;20037;-81
2023/07/27 11:42:35;;;;;;;8.70;3.38;;;17.60;99.90;;;;;;5022592;28;20488;-80
2023/07/27 11:45:02;;;;;;;5.93;2.83;;;17.60;99.90;;;;;;4997255;28;20068;-79
2023/07/27 11:47:38;;;;;;;7.40;2.75;;;17.60;99.90;;;;;;5013212;28;20061;-85
2023/07/27 11:50:06;;;;;;;5.38;2.80;;;17.60;99.90;;;;;;5018721;28;20824;-84
2023/07/27 11:52:33;;;;;;;5.80;3.58;;;17.60;99.90;;;;;;5021841;28;20049;-86
2023/07/27 11:55:01;;;;;;;5.15;2.70;;;17.70;99.90;;;;;;5020713;28;20646;-84
2023/07/27 11:57:27;;;;;;;5.72;3.20;;;17.70;99.90;;;;;;5002185;28;20053;-79
2023/07/27 12:00:12;;;;;;;5.95;3.22;;;17.80;99.90;;;;;;5018217;28;20046;-79
2023/07/27 12:02:39;;;;;;;5.45;2.85;;;17.80;99.90;;;;;;5010876;28;20049;-79
2023/07/27 12:05:05;;;;;;;5.45;2.80;;;17.80;99.90;;;;;;5014504;28;20038;-79
2023/07/27 12:07:34;;;;;;;3.33;1.83;;;17.90;99.90;;;;;;5023439;28;20035;-79
2023/07/27 12:10:00;;;;;;;2.92;1.60;;;17.90;99.90;;;;;;5021652;28;20045;-78
2023/07/27 12:12:27;;;;;;;3.67;1.98;;;17.90;99.90;;;;;;5026309;28;20040;-79
2023/07/27 12:14:55;;;;;;;2.30;1.60;;;18.00;99.90;;;;;;5014965;28;20042;-79
2023/07/27 12:17:24;;;;;;;2.03;1.27;;;18.00;99.90;;;;;;5020556;28;20073;-77
2023/07/27 12:19:50;;;;;;;2.13;1.30;;;18.10;99.90;;;;;;4997345;28;20454;-76
2023/07/27 12:22:15;;;;;;;3.35;1.05;;;18.10;99.90;;;;;;4989489;28;20149;-78
2023/07/27 12:24:45;;;;;;;1.75;0.70;;;18.20;99.90;;;;;;5025247;28;20116;-78
2023/07/27 12:27:11;;;;;;;1.65;0.90;;;18.30;99.90;;;;;;5027056;28;20029;-78
2023/07/27 12:29:37;;;;;;;1.48;1.00;;;18.30;99.90;;;;;;5009536;28;20049;-77
2023/07/27 12:32:04;;;;;;;0.60;0.60;;;18.40;99.90;;;;;;5026637;28;20060;-77
2023/07/27 12:34:31;;;;;;;1.45;0.65;;;18.40;99.90;;;;;;5017454;28;20041;-79
2023/07/27 12:36:57;;;;;;;0.50;0.50;;;18.40;99.90;;;;;;5020024;28;20040;-78
2023/07/27 12:39:23;;;;;;;0.98;0.63;;;18.40;99.90;;;;;;5019486;28;20451;-78
2023/07/27 12:41:48;;;;;;;0.40;0.40;;;18.40;99.90;;;;;;5009603;28;20064;-79
2023/07/27 12:44:14;;;;;;;3.80;0.63;;;18.40;99.90;;;;;;5019220;28;20041;-78
2023/07/27 12:46:39;;;;;;;0.73;0.50;;;18.40;99.90;;;;;;5022829;28;20053;-79
2023/07/27 12:49:06;;;;;;;0.88;0.70;;;18.40;99.90;;;;;;5017254;28;20038;-79
2023/07/27 12:51:31;;;;;;;0.80;0.68;;;18.40;99.90;;;;;;5020924;28;20120;-78